Time;durP1;ratioP1;P1;durP2;ratioP2;P2;SDS_P1;SDS_P2;PMS_P1;PMS_P2;Temp;Humidity;BMP_temperature;BMP_pressure;BME280_temperature;BME280_humidity;BME280_pressure;Samples;Min_cycle;Max_cycle;Signal;HPM_P1;HPM_P2
2021/08/09 00:00:22;;;;;;;1.38;1.17;;;;;;;14.89;90.90;100785.91;3575856;40;20057;-50
2021/08/09 00:02:49;;;;;;;2.90;1.20;;;;;;;14.82;91.24;100793.56;3575814;40;20184;-52
2021/08/09 00:05:17;;;;;;;4.13;1.27;;;;;;;14.86;91.12;100798.75;3575826;40;20086;-53
2021/08/09 00:07:44;;;;;;;1.30;1.20;;;;;;;14.79;91.61;100809.88;3575990;40;20069;-50
2021/08/09 00:10:11;;;;;;;2.17;1.20;;;;;;;14.68;92.11;100811.47;3576190;40;20056;-52
2021/08/09 00:12:38;;;;;;;2.15;1.50;;;;;;;14.66;92.27;100808.03;3576138;40;20421;-50
2021/08/09 00:15:06;;;;;;;2.83;1.08;;;;;;;14.61;93.21;100813.13;3544080;40;20090;-51
2021/08/09 00:17:33;;;;;;;1.13;1.02;;;;;;;14.48;94.22;100814.69;3543986;40;20097;-49
2021/08/09 00:20:00;;;;;;;2.38;1.40;;;;;;;14.45;94.99;100817.19;3543950;40;20049;-51
2021/08/09 00:22:27;;;;;;;2.13;1.33;;;;;;;14.42;95.17;100814.59;3543703;40;20038;-53
2021/08/09 00:24:54;;;;;;;3.17;1.50;;;;;;;14.42;95.08;100812.03;3543516;40;20053;-52
2021/08/09 00:27:21;;;;;;;2.75;1.20;;;;;;;14.33;95.02;100813.59;3543740;40;20054;-51
2021/08/09 00:29:48;;;;;;;2.25;1.35;;;;;;;14.21;97.11;100812.59;3543782;40;20098;-54
2021/08/09 00:32:17;;;;;;;1.33;1.23;;;;;;;14.30;96.07;100816.16;3543633;40;20344;-50
2021/08/09 00:34:44;;;;;;;3.33;1.48;;;;;;;14.15;96.31;100815.13;3543709;40;20141;-50
2021/08/09 00:37:11;;;;;;;3.63;1.48;;;;;;;14.12;97.61;100822.78;3544085;40;20114;-51
2021/08/09 00:39:38;;;;;;;2.53;1.52;;;;;;;14.13;97.12;100813.34;3558300;40;20049;-54
2021/08/09 00:42:05;;;;;;;2.85;1.33;;;;;;;14.10;97.81;100815.91;3575552;40;20069;-53
2021/08/09 00:44:32;;;;;;;2.60;1.50;;;;;;;14.02;98.74;100815.78;3575311;40;20466;-52
2021/08/09 00:46:59;;;;;;;4.35;1.63;;;;;;;14.05;98.13;100813.28;3575441;40;20061;-52
2021/08/09 00:49:26;;;;;;;4.35;1.73;;;;;;;13.99;98.71;100814.03;3575493;40;20049;-55
2021/08/09 00:51:55;;;;;;;3.17;2.00;;;;;;;13.98;99.52;100816.59;3575500;40;20049;-53
2021/08/09 00:54:25;;;;;;;1.67;1.38;;;;;;;13.83;100.00;100822.41;3575609;40;20381;-50
2021/08/09 00:56:53;;;;;;;1.83;1.20;;;;;;;13.88;100.00;100817.31;3575372;40;20065;-50
2021/08/09 00:59:20;;;;;;;1.58;1.48;;;;;;;13.90;100.00;100824.19;3576669;40;20080;-51
2021/08/09 01:01:47;;;;;;;3.25;1.58;;;;;;;13.88;100.00;100819.88;3576884;40;20080;-52
2021/08/09 01:04:14;;;;;;;2.05;1.55;;;;;;;13.67;100.00;100816.13;3576881;40;20109;-54
2021/08/09 01:06:41;;;;;;;3.65;1.50;;;;;;;13.79;100.00;100819.75;3577092;40;20052;-52
2021/08/09 01:09:26;;;;;;;2.97;1.55;;;;;;;13.72;100.00;100817.06;3576676;40;20057;-51
2021/08/09 01:12:03;;;;;;;2.67;1.20;;;;;;;13.74;100.00;100823.13;3576414;40;20052;-53
2021/08/09 01:15:08;;;;;;;1.80;1.50;;;;;;;13.67;100.00;100831.56;3576680;40;20053;-51
2021/08/09 01:17:39;;;;;;;2.15;1.95;;;;;;;13.67;100.00;100829.00;3576586;40;20080;-51
2021/08/09 01:20:35;;;;;;;2.97;1.45;;;;;;;13.58;100.00;100833.16;3577023;40;20101;-50
2021/08/09 01:23:32;;;;;;;3.80;1.53;;;;;;;13.56;100.00;100840.00;3576625;40;20049;-52
2021/08/09 01:26:03;;;;;;;3.25;1.45;;;;;;;13.46;100.00;100839.84;3565766;40;20104;-49
2021/08/09 01:28:33;;;;;;;3.03;1.63;;;;;;;13.46;100.00;100841.56;3576601;40;20061;-53
2021/08/09 01:31:01;;;;;;;1.80;1.65;;;;;;;13.47;100.00;100841.56;3576684;40;20129;-55
2021/08/09 01:33:31;;;;;;;2.78;1.85;;;;;;;13.50;100.00;100828.75;3576702;40;20352;-54
2021/08/09 01:35:59;;;;;;;2.95;1.70;;;;;;;13.46;100.00;100823.53;3576783;40;20089;-51
2021/08/09 01:38:27;;;;;;;2.25;1.40;;;;;;;13.37;100.00;100836.25;3576344;40;20067;-53
2021/08/09 01:40:56;;;;;;;2.15;1.88;;;;;;;13.27;100.00;100847.22;3576654;40;20093;-50
2021/08/09 01:43:25;;;;;;;3.53;1.65;;;;;;;13.35;100.00;100850.78;3576779;40;20073;-53
2021/08/09 01:45:54;;;;;;;2.17;1.50;;;;;;;13.28;100.00;100847.25;3576773;40;20086;-55
2021/08/09 01:48:22;;;;;;;1.83;1.60;;;;;;;13.28;100.00;100851.53;3576375;40;20296;-51
2021/08/09 01:50:50;;;;;;;4.65;1.77;;;;;;;13.24;100.00;100851.47;3576717;40;20093;-53
2021/08/09 01:53:18;;;;;;;3.53;1.92;;;;;;;13.21;100.00;100861.66;3576696;40;20085;-51
2021/08/09 01:55:46;;;;;;;3.05;1.83;;;;;;;13.27;100.00;100860.97;3576439;40;20091;-52
2021/08/09 01:58:14;;;;;;;3.00;2.03;;;;;;;13.09;100.00;100868.31;3576555;40;20265;-50
2021/08/09 02:00:41;;;;;;;3.15;1.98;;;;;;;13.15;100.00;100871.84;3576829;40;20101;-52
2021/08/09 02:03:08;;;;;;;2.20;2.00;;;;;;;13.15;100.00;100868.41;3576405;40;20045;-49
2021/08/09 02:05:36;;;;;;;2.10;1.90;;;;;;;13.11;100.00;100866.63;3576360;40;20053;-50
2021/08/09 02:08:03;;;;;;;3.33;1.98;;;;;;;13.15;100.00;100871.84;3576500;40;20089;-51
2021/08/09 02:10:31;;;;;;;5.10;2.88;;;;;;;13.07;100.00;100867.41;3576235;40;20085;-50
2021/08/09 02:13:18;;;;;;;2.42;2.22;;;;;;;13.13;100.00;100872.66;3576722;40;20089;-53
2021/08/09 02:15:58;;;;;;;2.20;2.00;;;;;;;13.19;100.00;100860.78;3576245;40;20100;-50
2021/08/09 02:18:31;;;;;;;3.92;2.28;;;;;;;13.23;100.00;100865.16;3576331;40;20052;-50
2021/08/09 02:21:02;;;;;;;4.00;2.15;;;;;;;13.19;100.00;100873.63;3576552;40;20430;-51
2021/08/09 02:23:38;;;;;;;3.28;1.70;;;;;;;13.19;100.00;100865.91;3576465;40;20331;-53
2021/08/09 02:26:07;;;;;;;5.07;2.40;;;;;;;13.13;100.00;100878.69;3576251;40;20072;-50
2021/08/09 02:28:41;;;;;;;2.90;2.33;;;;;;;13.21;100.00;100886.50;3576129;40;20079;-50
2021/08/09 02:31:10;;;;;;;1.90;1.77;;;;;;;13.17;100.00;100884.72;3576635;40;20090;-54
2021/08/09 02:33:38;;;;;;;3.60;2.08;;;;;;;13.20;100.00;100884.78;3576742;40;20342;-50
2021/08/09 02:36:06;;;;;;;2.38;1.80;;;;;;;13.16;100.00;100889.00;3576299;40;20085;-50
2021/08/09 02:38:33;;;;;;;4.45;2.10;;;;;;;13.04;100.00;100886.22;3576157;40;20123;-52
2021/08/09 02:41:01;;;;;;;2.90;2.58;;;;;;;13.12;100.00;100897.50;3576443;40;20052;-54
2021/08/09 02:43:30;;;;;;;3.05;2.42;;;;;;;13.10;100.00;100899.19;3576395;40;20454;-55
2021/08/09 02:45:58;;;;;;;3.40;1.90;;;;;;;13.09;100.00;100896.59;3577568;40;20346;-54
2021/08/09 02:48:26;;;;;;;4.57;1.95;;;;;;;13.11;100.00;100907.75;3577631;40;20057;-50
2021/08/09 02:50:56;;;;;;;3.40;1.90;;;;;;;13.03;100.00;100905.03;3576423;40;20085;-50
2021/08/09 02:53:26;;;;;;;2.90;1.67;;;;;;;13.08;100.00;100908.59;3576162;40;20052;-53
2021/08/09 02:55:56;;;;;;;3.47;2.63;;;;;;;13.09;100.00;100906.88;3575822;40;20089;-55
2021/08/09 02:58:24;;;;;;;3.72;2.22;;;;;;;13.09;100.00;100899.16;3576086;40;20132;-50
2021/08/09 03:00:54;;;;;;;4.95;2.22;;;;;;;13.04;100.00;100895.63;3576212;40;20364;-50
2021/08/09 03:03:23;;;;;;;3.90;2.38;;;;;;;13.02;100.00;100905.88;3574604;40;20076;-55
2021/08/09 03:05:53;;;;;;;1.98;1.77;;;;;;;13.01;100.00;100901.56;3568057;40;20085;-52
2021/08/09 03:08:22;;;;;;;3.13;2.00;;;;;;;12.98;100.00;100897.22;3565906;40;20059;-51
2021/08/09 03:10:50;;;;;;;3.05;1.70;;;;;;;13.02;100.00;100903.31;3572915;40;20092;-54
2021/08/09 03:13:24;;;;;;;2.20;2.00;;;;;;;12.99;100.00;100904.13;3576091;40;20052;-50
2021/08/09 03:15:52;;;;;;;3.08;2.15;;;;;;;13.02;100.00;100908.44;3576396;40;20192;-52
2021/08/09 03:18:19;;;;;;;2.80;2.08;;;;;;;12.92;100.00;100907.41;3576279;40;20063;-50
2021/08/09 03:20:48;;;;;;;3.25;2.10;;;;;;;12.99;100.00;100911.84;3575999;40;20060;-51
2021/08/09 03:23:15;;;;;;;2.33;1.98;;;;;;;12.98;100.00;100916.94;3574391;40;20089;-52
2021/08/09 03:25:42;;;;;;;3.03;1.75;;;;;;;12.98;100.00;100917.78;3572592;40;20335;-51
2021/08/09 03:28:12;;;;;;;3.45;2.38;;;;;;;12.90;100.00;100921.94;3570689;40;20292;-52
2021/08/09 03:30:38;;;;;;;2.92;2.30;;;;;;;12.94;100.00;100912.56;3565251;40;20084;-50
2021/08/09 03:33:06;;;;;;;2.75;2.10;;;;;;;12.92;100.00;100915.13;3565091;40;20049;-50
2021/08/09 03:35:32;;;;;;;2.72;1.90;;;;;;;12.87;100.00;100901.31;3565658;40;20137;-51
2021/08/09 03:38:00;;;;;;;2.92;1.90;;;;;;;12.94;100.00;100904.84;3564752;40;20410;-51
2021/08/09 03:40:27;;;;;;;2.35;2.10;;;;;;;12.93;100.00;100909.13;3565046;40;20069;-50
2021/08/09 03:42:54;;;;;;;2.08;1.83;;;;;;;12.93;100.00;100910.84;3564911;40;20093;-51
2021/08/09 03:45:21;;;;;;;3.40;2.05;;;;;;;12.94;100.00;100910.00;3564963;40;20109;-51
2021/08/09 03:47:48;;;;;;;2.42;2.00;;;;;;;12.90;100.00;100913.38;3565072;40;20089;-50
2021/08/09 03:50:15;;;;;;;3.83;1.80;;;;;;;12.93;100.00;100911.69;3565151;40;20041;-55
2021/08/09 03:52:47;;;;;;;2.45;1.90;;;;;;;12.95;100.00;100912.63;3565551;40;20106;-50
2021/08/09 03:55:17;;;;;;;4.78;2.15;;;;;;;12.78;100.00;100920.81;3565771;40;20045;-51
2021/08/09 03:57:47;;;;;;;2.08;1.80;;;;;;;12.90;100.00;100919.38;3571984;39;20048;-56
2021/08/09 04:00:16;;;;;;;2.25;2.05;;;;;;;12.95;100.00;100919.47;3585607;39;20149;-52
2021/08/09 04:02:53;;;;;;;5.97;2.15;;;;;;;12.90;100.00;100927.09;3585821;39;20073;-53
2021/08/09 04:05:31;;;;;;;3.40;2.47;;;;;;;12.89;100.00;100927.91;3585637;39;20060;-52
2021/08/09 04:07:59;;;;;;;3.15;1.88;;;;;;;12.96;100.00;100929.75;3585632;39;20052;-53
2021/08/09 04:10:29;;;;;;;6.93;2.03;;;;;;;12.94;100.00;100935.69;3585935;39;20080;-57
2021/08/09 04:12:56;;;;;;;4.80;2.25;;;;;;;12.99;100.00;100929.84;3586227;39;20060;-52
2021/08/09 04:15:24;;;;;;;2.58;1.80;;;;;;;13.01;100.00;100927.28;3585569;39;20049;-53
2021/08/09 04:17:51;;;;;;;4.25;2.03;;;;;;;13.00;100.00;100923.84;3585419;39;20129;-56
2021/08/09 04:20:19;;;;;;;2.45;2.03;;;;;;;13.06;100.00;100924.81;3585636;39;20469;-51
2021/08/09 04:22:46;;;;;;;2.92;1.98;;;;;;;13.09;100.00;100930.88;3585593;39;20084;-54
2021/08/09 04:25:14;;;;;;;2.60;1.85;;;;;;;13.05;100.00;100933.34;3585358;39;20052;-53
2021/08/09 04:27:43;;;;;;;3.80;1.98;;;;;;;12.92;100.00;100930.53;3585722;39;20037;-52
2021/08/09 04:30:19;;;;;;;3.15;1.90;;;;;;;13.11;100.00;100933.47;3585738;39;20047;-53
2021/08/09 04:32:56;;;;;;;2.58;1.80;;;;;;;13.09;100.00;100930.00;3586077;39;20040;-53
2021/08/09 04:35:25;;;;;;;3.38;1.70;;;;;;;13.12;100.00;100932.63;3587167;39;20064;-53
2021/08/09 04:37:53;;;;;;;2.47;2.00;;;;;;;13.16;99.52;100935.28;3587129;39;20056;-52
2021/08/09 04:40:24;;;;;;;3.92;1.98;;;;;;;13.27;99.31;100935.53;3587106;39;20045;-52
2021/08/09 04:42:52;;;;;;;2.47;1.67;;;;;;;13.31;99.51;100934.75;3587001;39;20361;-53
2021/08/09 04:45:20;;;;;;;2.33;1.60;;;;;;;13.27;98.85;100924.38;3586988;39;20045;-50
2021/08/09 04:47:49;;;;;;;2.83;1.75;;;;;;;13.32;99.36;100923.63;3587035;39;20149;-53
2021/08/09 04:50:23;;;;;;;3.67;2.05;;;;;;;13.41;98.33;100925.50;3586947;39;20498;-54
2021/08/09 04:52:51;;;;;;;3.97;2.10;;;;;;;13.55;97.51;100923.16;3587052;39;20052;-57
2021/08/09 04:55:19;;;;;;;2.40;1.90;;;;;;;13.56;96.64;100930.03;3586841;39;20091;-53
2021/08/09 04:57:47;;;;;;;5.10;1.70;;;;;;;13.60;96.43;100926.69;3586637;39;20063;-54
2021/08/09 05:00:15;;;;;;;4.43;2.58;;;;;;;13.63;96.02;100929.28;3586163;39;20048;-53
2021/08/09 05:02:44;;;;;;;5.05;2.25;;;;;;;13.76;96.58;100934.66;3586920;39;20430;-55
2021/08/09 05:05:12;;;;;;;5.93;1.88;;;;;;;13.85;95.74;100935.66;3587292;39;20404;-52
2021/08/09 05:07:40;;;;;;;4.18;2.20;;;;;;;13.89;95.54;100934.88;3587167;39;20044;-54
2021/08/09 05:10:08;;;;;;;2.42;1.70;;;;;;;14.02;94.03;100949.69;3586916;39;20048;-54
2021/08/09 05:12:35;;;;;;;3.97;1.80;;;;;;;14.09;95.92;100943.78;3586464;39;20057;-51
2021/08/09 05:15:04;;;;;;;3.85;1.60;;;;;;;14.13;94.66;100947.25;3587042;39;20048;-52
2021/08/09 05:17:33;;;;;;;2.25;1.50;;;;;;;14.24;93.55;100948.31;3587182;39;20092;-53
2021/08/09 05:20:01;;;;;;;2.05;1.67;;;;;;;14.42;92.71;100958.88;3587232;39;20072;-54
2021/08/09 05:22:29;;;;;;;3.55;1.77;;;;;;;14.44;91.63;100952.03;3587180;39;20033;-54
2021/08/09 05:27:26;;;;;;;5.47;1.83;;;;;;;14.64;92.00;100954.03;3546050;40;20065;-50
2021/08/09 05:29:53;;;;;;;3.97;1.75;;;;;;;14.58;92.59;100952.25;3547348;40;20070;-49
2021/08/09 05:32:21;;;;;;;6.55;2.83;;;;;;;14.98;91.27;100960.50;3546753;40;20042;-57
2021/08/09 05:34:48;;;;;;;7.13;2.40;;;;;;;15.01;91.62;100966.53;3546914;40;20090;-49
2021/08/09 05:37:15;;;;;;;5.82;1.75;;;;;;;15.14;90.09;100964.97;3547022;40;20086;-50
2021/08/09 05:39:42;;;;;;;3.58;1.48;;;;;;;15.17;89.26;100970.19;3547344;40;20103;-49
2021/08/09 05:42:09;;;;;;;1.98;1.48;;;;;;;15.18;88.65;100964.16;3547033;40;20075;-49
2021/08/09 05:44:36;;;;;;;2.70;1.90;;;;;;;15.31;89.14;100959.16;3546368;40;20090;-57
2021/08/09 05:47:03;;;;;;;3.78;1.70;;;;;;;15.42;88.19;100965.28;3546749;40;20114;-49
2021/08/09 05:49:30;;;;;;;4.93;1.70;;;;;;;15.54;87.65;100968.84;3546900;40;20072;-49
2021/08/09 05:51:57;;;;;;;2.15;1.63;;;;;;;15.60;87.46;100967.19;3547066;40;20091;-49
2021/08/09 05:54:24;;;;;;;4.35;2.10;;;;;;;15.64;87.13;100974.13;3546967;40;20090;-52
2021/08/09 05:56:51;;;;;;;5.35;1.85;;;;;;;15.96;86.97;100971.84;3546984;40;20050;-49
2021/08/09 05:59:18;;;;;;;1.95;1.70;;;;;;;16.05;85.50;100971.91;3546853;40;20078;-51
2021/08/09 06:01:45;;;;;;;1.70;1.60;;;;;;;16.08;85.21;100981.38;3546917;40;20082;-53
2021/08/09 06:04:12;;;;;;;4.47;1.75;;;;;;;16.07;84.84;100983.09;3547323;40;20140;-49
2021/08/09 06:06:41;;;;;;;2.65;1.50;;;;;;;16.07;84.21;100977.94;3547088;40;20090;-52
2021/08/09 06:09:11;;;;;;;2.55;1.73;;;;;;;16.23;84.05;100990.13;3546863;40;20065;-51
2021/08/09 06:11:40;;;;;;;4.70;1.65;;;;;;;16.36;83.17;100985.94;3547088;40;20469;-52
2021/08/09 06:14:07;;;;;;;4.20;1.70;;;;;;;16.65;81.86;100988.69;3546970;40;20386;-53
2021/08/09 06:16:34;;;;;;;5.35;1.77;;;;;;;16.73;82.13;100993.91;3546516;40;20420;-51
2021/08/09 06:19:01;;;;;;;3.60;1.40;;;;;;;16.79;81.19;100992.25;3546545;40;20065;-56
2021/08/09 06:21:28;;;;;;;5.95;2.13;;;;;;;16.68;81.81;100993.00;3546973;40;20232;-52
2021/08/09 06:23:56;;;;;;;3.13;1.90;;;;;;;17.17;80.05;101001.88;3547316;40;20091;-53
2021/08/09 06:26:26;;;;;;;4.07;1.70;;;;;;;17.27;80.25;100998.47;3546754;40;20086;-53
2021/08/09 06:28:53;;;;;;;2.33;1.50;;;;;;;17.30;78.92;100998.47;3546776;40;20082;-54
2021/08/09 06:31:23;;;;;;;3.17;1.98;;;;;;;17.46;79.21;101003.69;3546690;40;20102;-53
2021/08/09 06:33:50;;;;;;;4.20;1.50;;;;;;;17.59;78.42;101000.28;3546841;40;20139;-51
2021/08/09 06:36:17;;;;;;;7.32;1.90;;;;;;;17.66;79.47;101014.09;3547058;40;20093;-49
2021/08/09 06:38:44;;;;;;;3.28;1.70;;;;;;;17.70;77.88;101016.72;3546931;40;20103;-50
2021/08/09 06:41:11;;;;;;;3.03;1.52;;;;;;;17.63;77.94;101012.38;3547299;40;20112;-49
2021/08/09 06:43:38;;;;;;;2.25;1.40;;;;;;;17.55;77.43;101009.75;3547035;40;20054;-49
2021/08/09 06:46:05;;;;;;;4.07;1.50;;;;;;;17.68;77.19;101017.56;3553544;40;20058;-50
2021/08/09 06:48:33;;;;;;;1.90;1.65;;;;;;;17.53;78.45;101013.22;3546798;40;20050;-50
2021/08/09 06:51:00;;;;;;;2.10;1.70;;;;;;;17.56;77.51;101016.69;3546816;40;20334;-49
2021/08/09 06:53:27;;;;;;;2.78;1.50;;;;;;;17.49;78.19;101020.09;3546460;40;20046;-50
2021/08/09 06:55:54;;;;;;;4.18;1.77;;;;;;;17.61;79.15;101016.69;3546161;40;20128;-50
2021/08/09 06:58:21;;;;;;;1.83;1.42;;;;;;;17.92;78.55;101019.34;3546822;40;20325;-53
2021/08/09 07:00:48;;;;;;;6.55;1.60;;;;;;;18.25;76.85;101016.75;3546543;40;20062;-50
2021/08/09 07:03:18;;;;;;;4.00;1.73;;;;;;;18.19;76.69;101024.53;3546699;40;20065;-49
2021/08/09 07:05:47;;;;;;;3.75;2.00;;;;;;;18.21;76.18;101022.81;3546638;40;20089;-52
2021/08/09 07:08:14;;;;;;;3.55;1.40;;;;;;;18.39;74.56;101016.72;3546740;40;20511;-48
2021/08/09 07:10:44;;;;;;;2.45;1.58;;;;;;;18.06;76.05;101021.06;3546643;40;20042;-52
2021/08/09 07:13:12;;;;;;;5.25;1.88;;;;;;;18.13;75.31;101019.34;3546729;40;20050;-52
2021/08/09 07:15:39;;;;;;;2.90;1.52;;;;;;;18.24;74.85;101016.75;3546536;40;20053;-49
2021/08/09 07:18:06;;;;;;;2.17;1.73;;;;;;;18.24;77.28;101015.03;3546531;40;20120;-49
2021/08/09 07:20:33;;;;;;;2.50;1.65;;;;;;;18.72;75.34;101026.25;3546318;40;20094;-56
2021/08/09 07:23:08;;;;;;;2.65;1.50;;;;;;;18.91;73.56;101016.66;3546548;40;20054;-52
2021/08/09 07:25:35;;;;;;;1.92;1.20;;;;;;;19.02;73.33;101027.84;3546456;40;20119;-50
2021/08/09 07:28:03;;;;;;;4.10;1.60;;;;;;;19.09;72.16;101020.94;3546523;40;20304;-52
2021/08/09 07:30:30;;;;;;;2.55;1.70;;;;;;;19.47;72.30;101014.69;3546207;40;20054;-51
2021/08/09 07:32:57;;;;;;;2.72;1.50;;;;;;;19.18;71.87;101014.81;3546404;40;20069;-49
2021/08/09 07:35:24;;;;;;;5.03;1.83;;;;;;;19.03;72.80;101008.81;3546319;40;20090;-51
2021/08/09 07:37:52;;;;;;;2.15;1.60;;;;;;;19.09;71.74;101013.13;3546288;40;20062;-52
2021/08/09 07:40:20;;;;;;;3.80;1.83;;;;;;;19.00;74.67;101005.41;3546257;40;20066;-49
2021/08/09 07:42:50;;;;;;;2.97;1.63;;;;;;;19.20;71.91;101007.88;3546447;40;20062;-53
2021/08/09 07:45:19;;;;;;;2.55;1.50;;;;;;;19.32;71.07;101013.91;3546511;40;20062;-51
2021/08/09 07:47:52;;;;;;;2.67;1.40;;;;;;;19.37;70.95;101007.81;3546227;40;20410;-52
2021/08/09 07:50:22;;;;;;;3.30;1.65;;;;;;;19.04;73.54;101005.38;3546928;40;20065;-52
2021/08/09 07:52:50;;;;;;;3.42;1.58;;;;;;;18.98;74.26;101010.56;3547322;40;20058;-52
2021/08/09 07:55:17;;;;;;;3.65;1.67;;;;;;;19.31;72.76;101003.50;3547315;40;20090;-55
2021/08/09 07:57:44;;;;;;;2.53;1.60;;;;;;;19.11;72.97;101005.34;3547542;40;20494;-53
2021/08/09 08:00:14;;;;;;;2.78;1.80;;;;;;;19.12;72.57;100999.28;3547325;40;20074;-51
2021/08/09 08:02:43;;;;;;;2.20;1.27;;;;;;;19.33;72.14;101005.22;3546959;40;20050;-52
2021/08/09 08:05:10;;;;;;;5.65;1.65;;;;;;;19.63;71.39;101002.47;3546578;40;20062;-49
2021/08/09 08:07:37;;;;;;;3.13;1.65;;;;;;;19.45;72.06;101008.63;3546423;40;20050;-51
2021/08/09 08:10:05;;;;;;;3.25;1.90;;;;;;;19.61;71.61;101017.22;3547172;40;20893;-50
2021/08/09 08:12:32;;;;;;;2.50;1.70;;;;;;;19.62;72.95;101009.41;3547243;40;20090;-51
2021/08/09 08:14:59;;;;;;;5.75;1.80;;;;;;;19.59;70.45;101015.44;3546232;40;20058;-54
2021/08/09 08:17:26;;;;;;;1.60;1.50;;;;;;;19.90;69.88;101017.88;3546169;40;20373;-51
2021/08/09 08:19:53;;;;;;;3.40;1.77;;;;;;;19.76;69.91;101017.13;3546172;40;20090;-55
2021/08/09 08:22:20;;;;;;;4.90;2.05;;;;;;;19.63;70.55;101010.28;3546146;40;20058;-53
2021/08/09 08:24:47;;;;;;;2.55;1.77;;;;;;;19.76;70.10;101015.38;3546168;40;20094;-53
2021/08/09 08:27:14;;;;;;;4.50;2.22;;;;;;;19.88;68.92;101018.78;3546156;40;20058;-51
2021/08/09 08:29:42;;;;;;;3.00;1.77;;;;;;;19.73;70.25;101023.19;3546166;40;20054;-51
2021/08/09 08:32:12;;;;;;;4.82;1.80;;;;;;;19.75;69.48;101024.06;3545817;40;20066;-56
2021/08/09 08:34:39;;;;;;;3.88;2.00;;;;;;;20.12;68.19;101026.38;3545922;40;20051;-51
2021/08/09 08:37:07;;;;;;;5.28;2.03;;;;;;;20.46;68.53;101042.53;3545722;40;20062;-51
2021/08/09 08:39:34;;;;;;;2.67;1.65;;;;;;;20.44;66.23;101033.91;3545678;40;20145;-52
2021/08/09 08:42:01;;;;;;;2.72;1.70;;;;;;;20.82;66.73;101037.88;3545730;40;20443;-50
2021/08/09 08:44:28;;;;;;;3.55;1.77;;;;;;;20.94;65.72;101037.75;3545807;40;20508;-52
2021/08/09 08:46:55;;;;;;;6.28;1.75;;;;;;;21.08;66.56;101028.03;3545904;40;20050;-50
2021/08/09 08:49:23;;;;;;;3.00;1.60;;;;;;;21.54;63.43;101029.22;3545552;40;20063;-56
2021/08/09 08:51:51;;;;;;;2.42;1.50;;;;;;;21.61;63.34;101031.69;3545940;40;20319;-52
2021/08/09 08:54:19;;;;;;;2.65;1.52;;;;;;;21.51;63.18;101045.72;3550547;40;20329;-54
2021/08/09 08:56:46;;;;;;;2.97;1.40;;;;;;;;;;3546712;40;20372;-50
2021/08/09 08:59:19;;;;;;;2.90;1.38;;;;;;;21.05;63.83;101035.00;3554894;40;20057;-53
2021/08/09 09:01:48;;;;;;;2.97;1.35;;;;;;;21.15;61.84;101036.63;3555542;40;20319;-50
2021/08/09 09:04:32;;;;;;;3.53;1.80;;;;;;;20.62;66.52;101035.50;3555435;40;20053;-55
2021/08/09 09:07:03;;;;;;;3.78;1.40;;;;;;;21.33;61.47;101044.22;3555379;40;20061;-55
2021/08/09 09:09:34;;;;;;;2.67;1.40;;;;;;;21.35;61.34;101058.13;3555264;40;20038;-49
2021/08/09 09:12:19;;;;;;;3.20;1.45;;;;;;;21.26;64.07;101059.91;3555567;40;20057;-55
2021/08/09 09:15:05;;;;;;;4.20;1.58;;;;;;;21.27;62.45;101059.06;3555706;40;20054;-49
2021/08/09 09:17:37;;;;;;;4.03;1.77;;;;;;;21.24;61.65;101057.34;3555529;40;20323;-51
2021/08/09 09:20:23;;;;;;;3.42;1.70;;;;;;;21.41;61.09;101048.50;3556735;40;20056;-49
2021/08/09 09:22:52;;;;;;;4.20;1.60;;;;;;;21.33;62.13;101054.66;3556814;40;20045;-51
2021/08/09 09:25:33;;;;;;;4.65;1.75;;;;;;;21.93;60.69;101055.56;3556964;40;20057;-49
2021/08/09 09:28:28;;;;;;;3.20;1.50;;;;;;;21.44;59.86;101051.91;3556203;40;20050;-52
2021/08/09 09:31:05;;;;;;;3.40;2.20;;;;;;;21.41;61.42;101058.91;3551166;40;20054;-51
2021/08/09 09:33:32;;;;;;;3.05;1.70;;;;;;;21.08;61.92;101061.03;3546700;40;20054;-52
2021/08/09 09:36:08;;;;;;;3.75;1.55;;;;;;;21.67;61.26;101056.78;3551010;40;20054;-53
2021/08/09 09:38:44;;;;;;;2.38;1.40;;;;;;;21.82;59.70;101072.25;3548263;40;20076;-52
2021/08/09 09:41:12;;;;;;;2.60;1.63;;;;;;;22.03;60.23;101072.78;3546454;40;20078;-51
2021/08/09 09:43:41;;;;;;;4.43;1.70;;;;;;;22.28;58.90;101074.16;3546156;40;20434;-52
2021/08/09 09:46:28;;;;;;;2.22;1.70;;;;;;;22.91;56.61;101072.19;3546081;40;20123;-53
2021/08/09 09:49:05;;;;;;;3.65;1.73;;;;;;;23.10;57.16;101076.16;3544458;40;20304;-53
2021/08/09 09:51:41;;;;;;;3.90;1.60;;;;;;;23.15;56.98;101069.09;3546616;40;20115;-52
2021/08/09 09:54:11;;;;;;;3.28;2.03;;;;;;;22.70;57.17;101071.69;3546715;40;20087;-53
2021/08/09 09:56:40;;;;;;;4.15;1.70;;;;;;;23.54;54.82;101048.25;3546465;40;20089;-52
2021/08/09 09:59:08;;;;;;;3.17;1.60;;;;;;;23.08;55.39;101052.69;3546615;40;20433;-55
2021/08/09 10:01:36;;;;;;;4.40;1.58;;;;;;;23.85;56.42;101051.91;3546697;40;20082;-56
2021/08/09 10:04:03;;;;;;;3.67;1.67;;;;;;;25.25;50.16;101066.63;3546103;40;20140;-56
2021/08/09 10:06:31;;;;;;;3.38;1.67;;;;;;;25.63;47.37;101066.34;3546227;40;20055;-54
2021/08/09 10:08:59;;;;;;;3.45;1.40;;;;;;;25.65;46.15;101053.16;3546137;40;20062;-52
2021/08/09 10:11:29;;;;;;;2.33;1.55;;;;;;;27.58;41.71;101070.16;3546041;40;20078;-51
2021/08/09 10:13:57;;;;;;;3.60;1.55;;;;;;;28.75;39.29;101071.50;3546064;40;20074;-51
2021/08/09 10:16:32;;;;;;;4.60;1.40;;;;;;;28.74;37.99;101073.28;3546183;40;20097;-56
2021/08/09 10:19:00;;;;;;;2.15;1.17;;;;;;;27.88;37.83;101068.13;3546299;40;20450;-51
2021/08/09 10:21:32;;;;;;;2.60;1.40;;;;;;;29.59;36.39;101081.78;3546159;40;20055;-49
2021/08/09 10:24:00;;;;;;;3.30;1.23;;;;;;;29.21;34.95;101069.47;3546211;40;20090;-49
2021/08/09 10:26:26;;;;;;;2.20;1.23;;;;;;;29.79;35.98;101062.31;3513629;40;1338757;-49
2021/08/09 10:28:54;;;;;;;4.50;1.80;;;;;;;31.42;32.71;101074.16;3546652;40;20098;-49
2021/08/09 10:31:26;;;;;;;5.00;1.40;;;;;;;31.83;30.98;101073.66;3547029;40;20098;-51
2021/08/09 10:33:54;;;;;;;2.75;1.63;;;;;;;32.54;29.43;101073.06;3549057;40;20051;-55
2021/08/09 10:36:23;;;;;;;3.47;1.60;;;;;;;30.85;32.28;101055.22;3548104;40;20086;-52
2021/08/09 10:38:52;;;;;;;2.03;1.27;;;;;;;32.34;29.81;101058.31;3546695;40;20050;-53
2021/08/09 10:41:52;;;;;;;2.58;1.33;;;;;;;33.33;27.52;101067.31;3547171;40;20365;-51
2021/08/09 10:44:19;;;;;;;4.95;1.40;;;;;;;33.80;27.04;101065.19;3546948;40;20082;-47
2021/08/09 10:46:46;;;;;;;3.35;1.42;;;;;;;34.06;26.63;101071.47;3546647;40;20462;-51
2021/08/09 10:49:38;;;;;;;3.83;1.67;;;;;;;33.11;26.67;101067.81;3546645;40;20062;-46
2021/08/09 10:52:07;;;;;;;3.20;1.45;;;;;;;34.36;26.22;101068.56;3546538;40;20407;-48
2021/08/09 10:54:35;;;;;;;2.22;1.20;;;;;;;33.92;25.47;101077.66;3546238;40;20090;-47
2021/08/09 10:57:04;;;;;;;2.78;1.20;;;;;;;32.71;27.46;101077.34;3546749;40;20046;-52
2021/08/09 10:59:49;;;;;;;5.40;1.25;;;;;;;34.08;25.71;101070.41;3546697;40;20451;-50
2021/08/09 11:02:20;;;;;;;2.67;1.60;;;;;;;34.38;25.71;101066.63;3547025;40;20046;-46
2021/08/09 11:05:13;;;;;;;4.35;1.48;;;;;;;33.19;27.20;101062.03;3546772;40;20058;-48
2021/08/09 11:07:41;;;;;;;2.15;1.20;;;;;;;34.34;24.17;101057.16;3546359;40;20153;-47
2021/08/09 11:10:09;;;;;;;1.95;1.25;;;;;;;32.09;27.86;101066.03;3546251;40;20086;-48
2021/08/09 11:12:59;;;;;;;2.92;1.50;;;;;;;34.03;24.67;101061.91;3546673;40;20081;-47
2021/08/09 11:15:29;;;;;;;2.25;1.00;;;;;;;34.73;24.15;101066.03;3546352;40;20045;-47
2021/08/09 11:17:58;;;;;;;3.45;1.45;;;;;;;33.90;25.50;101063.63;3546586;40;20058;-49
2021/08/09 11:20:26;;;;;;;2.53;1.20;;;;;;;35.60;23.02;101067.81;3546119;40;20148;-51
2021/08/09 11:23:11;;;;;;;2.00;1.25;;;;;;;36.18;22.37;101061.66;3546641;40;20094;-47
2021/08/09 11:25:39;;;;;;;1.75;1.13;;;;;;;36.68;22.36;101070.25;3608002;23;21836;-46
2021/08/09 11:28:08;;;;;;;1.83;1.20;;;;;;;37.19;21.31;101074.28;3584383;40;20095;-48
2021/08/09 11:30:50;;;;;;;2.25;1.50;;;;;;;36.09;21.89;101062.34;3584320;40;20064;-51
2021/08/09 11:33:19;;;;;;;4.03;1.38;;;;;;;37.69;20.86;101066.66;3584238;40;20078;-46
2021/08/09 11:35:47;;;;;;;2.35;1.48;;;;;;;35.57;22.68;101055.56;3584461;40;20060;-48
2021/08/09 11:38:15;;;;;;;3.97;1.45;;;;;;;34.93;23.37;101057.50;3584528;40;20055;-49